sensor_id;sensor_type;location;lat;lon;timestamp;P1;durP1;ratioP1;P2;durP2;ratioP2
56075;SDS011;41951;49.022;12.066;2023-02-14T00:01:05;29.27;;;15.75;;
56075;SDS011;41951;49.022;12.066;2023-02-14T00:03:32;30.25;;;15.50;;
56075;SDS011;41951;49.022;12.066;2023-02-14T00:06:03;29.20;;;14.88;;
56075;SDS011;41951;49.022;12.066;2023-02-14T00:08:33;30.77;;;16.10;;
56075;SDS011;41951;49.022;12.066;2023-02-14T00:10:59;27.55;;;15.40;;
56075;SDS011;41951;49.022;12.066;2023-02-14T00:13:24;28.33;;;14.93;;
56075;SDS011;41951;49.022;12.066;2023-02-14T00:15:50;30.55;;;16.20;;
56075;SDS011;41951;49.022;12.066;2023-02-14T00:18:15;29.73;;;16.42;;
56075;SDS011;41951;49.022;12.066;2023-02-14T00:20:41;30.52;;;15.90;;
56075;SDS011;41951;49.022;12.066;2023-02-14T00:23:06;30.45;;;16.70;;
56075;SDS011;41951;49.022;12.066;2023-02-14T00:25:32;29.58;;;15.05;;
56075;SDS011;41951;49.022;12.066;2023-02-14T00:27:58;30.35;;;16.42;;
56075;SDS011;41951;49.022;12.066;2023-02-14T00:30:24;27.67;;;15.57;;
56075;SDS011;41951;49.022;12.066;2023-02-14T00:32:49;29.23;;;15.63;;
56075;SDS011;41951;49.022;12.066;2023-02-14T00:35:15;29.27;;;15.45;;
56075;SDS011;41951;49.022;12.066;2023-02-14T00:37:41;31.67;;;16.65;;
56075;SDS011;41951;49.022;12.066;2023-02-14T00:40:06;29.88;;;15.00;;
56075;SDS011;41951;49.022;12.066;2023-02-14T00:42:33;32.35;;;15.45;;
56075;SDS011;41951;49.022;12.066;2023-02-14T00:44:59;27.40;;;14.43;;
56075;SDS011;41951;49.022;12.066;2023-02-14T00:47:24;28.50;;;14.98;;
56075;SDS011;41951;49.022;12.066;2023-02-14T00:49:50;29.30;;;15.73;;
56075;SDS011;41951;49.022;12.066;2023-02-14T00:52:16;28.90;;;14.85;;
56075;SDS011;41951;49.022;12.066;2023-02-14T00:54:41;30.20;;;16.13;;
56075;SDS011;41951;49.022;12.066;2023-02-14T00:57:07;32.40;;;16.58;;
56075;SDS011;41951;49.022;12.066;2023-02-14T00:59:32;29.42;;;15.25;;
56075;SDS011;41951;49.022;12.066;2023-02-14T01:01:58;29.65;;;14.77;;
56075;SDS011;41951;49.022;12.066;2023-02-14T01:04:23;29.52;;;15.30;;
56075;SDS011;41951;49.022;12.066;2023-02-14T01:06:49;31.10;;;15.82;;
56075;SDS011;41951;49.022;12.066;2023-02-14T01:09:14;29.52;;;15.52;;
56075;SDS011;41951;49.022;12.066;2023-02-14T01:11:40;30.38;;;15.18;;
56075;SDS011;41951;49.022;12.066;2023-02-14T01:14:06;29.67;;;15.27;;
56075;SDS011;41951;49.022;12.066;2023-02-14T01:16:31;28.48;;;15.75;;
56075;SDS011;41951;49.022;12.066;2023-02-14T01:18:57;30.98;;;15.43;;
56075;SDS011;41951;49.022;12.066;2023-02-14T01:21:26;28.70;;;14.93;;
56075;SDS011;41951;49.022;12.066;2023-02-14T01:23:54;30.83;;;15.23;;
56075;SDS011;41951;49.022;12.066;2023-02-14T01:26:22;30.33;;;14.85;;
56075;SDS011;41951;49.022;12.066;2023-02-14T01:28:48;29.85;;;15.95;;
56075;SDS011;41951;49.022;12.066;2023-02-14T01:31:15;34.08;;;16.85;;
56075;SDS011;41951;49.022;12.066;2023-02-14T01:33:47;29.48;;;13.93;;
56075;SDS011;41951;49.022;12.066;2023-02-14T01:36:17;28.48;;;14.70;;
56075;SDS011;41951;49.022;12.066;2023-02-14T01:38:46;28.55;;;14.32;;
56075;SDS011;41951;49.022;12.066;2023-02-14T01:41:15;30.33;;;15.35;;
56075;SDS011;41951;49.022;12.066;2023-02-14T01:43:54;28.40;;;14.73;;
56075;SDS011;41951;49.022;12.066;2023-02-14T01:46:23;28.88;;;14.27;;
56075;SDS011;41951;49.022;12.066;2023-02-14T01:48:50;23.85;;;13.23;;
56075;SDS011;41951;49.022;12.066;2023-02-14T01:51:18;27.85;;;14.45;;
56075;SDS011;41951;49.022;12.066;2023-02-14T01:53:44;32.22;;;16.83;;
56075;SDS011;41951;49.022;12.066;2023-02-14T01:56:12;29.88;;;15.57;;
56075;SDS011;41951;49.022;12.066;2023-02-14T01:58:43;28.38;;;14.65;;
56075;SDS011;41951;49.022;12.066;2023-02-14T02:01:14;27.92;;;14.73;;
56075;SDS011;41951;49.022;12.066;2023-02-14T02:03:52;28.02;;;14.95;;
56075;SDS011;41951;49.022;12.066;2023-02-14T02:06:21;26.85;;;14.68;;
56075;SDS011;41951;49.022;12.066;2023-02-14T02:08:56;28.13;;;14.55;;
56075;SDS011;41951;49.022;12.066;2023-02-14T02:11:29;27.50;;;14.35;;
56075;SDS011;41951;49.022;12.066;2023-02-14T02:13:55;28.42;;;15.52;;
56075;SDS011;41951;49.022;12.066;2023-02-14T02:16:41;31.35;;;14.60;;
56075;SDS011;41951;49.022;12.066;2023-02-14T02:33:40;28.42;;;14.23;;
56075;SDS011;41951;49.022;12.066;2023-02-14T02:36:16;27.55;;;13.75;;
56075;SDS011;41951;49.022;12.066;2023-02-14T02:42:09;27.90;;;13.90;;
56075;SDS011;41951;49.022;12.066;2023-02-14T02:44:51;26.38;;;14.57;;
56075;SDS011;41951;49.022;12.066;2023-02-14T02:47:45;29.65;;;14.98;;
56075;SDS011;41951;49.022;12.066;2023-02-14T02:50:40;22.75;;;12.80;;
56075;SDS011;41951;49.022;12.066;2023-02-14T02:53:39;25.60;;;14.45;;
56075;SDS011;41951;49.022;12.066;2023-02-14T02:56:19;28.40;;;14.65;;
56075;SDS011;41951;49.022;12.066;2023-02-14T02:59:18;25.75;;;13.90;;
56075;SDS011;41951;49.022;12.066;2023-02-14T03:01:55;24.45;;;13.35;;
56075;SDS011;41951;49.022;12.066;2023-02-14T03:04:31;25.05;;;13.32;;
56075;SDS011;41951;49.022;12.066;2023-02-14T03:07:19;25.17;;;14.30;;
56075;SDS011;41951;49.022;12.066;2023-02-14T03:10:00;27.25;;;14.18;;
56075;SDS011;41951;49.022;12.066;2023-02-14T03:17:54;24.42;;;13.90;;
56075;SDS011;41951;49.022;12.066;2023-02-14T03:31:33;25.17;;;13.77;;
56075;SDS011;41951;49.022;12.066;2023-02-14T03:34:08;26.90;;;14.00;;
56075;SDS011;41951;49.022;12.066;2023-02-14T03:36:39;24.17;;;13.30;;
56075;SDS011;41951;49.022;12.066;2023-02-14T03:39:19;22.25;;;12.73;;
56075;SDS011;41951;49.022;12.066;2023-02-14T03:42:11;24.93;;;13.10;;
56075;SDS011;41951;49.022;12.066;2023-02-14T03:44:43;25.40;;;12.90;;
56075;SDS011;41951;49.022;12.066;2023-02-14T03:47:15;23.67;;;12.55;;
56075;SDS011;41951;49.022;12.066;2023-02-14T03:49:52;28.02;;;14.02;;
56075;SDS011;41951;49.022;12.066;2023-02-14T03:52:31;25.48;;;13.77;;
56075;SDS011;41951;49.022;12.066;2023-02-14T03:54:58;26.50;;;13.48;;
56075;SDS011;41951;49.022;12.066;2023-02-14T04:00:06;26.30;;;14.60;;
56075;SDS011;41951;49.022;12.066;2023-02-14T04:02:43;26.38;;;13.52;;
56075;SDS011;41951;49.022;12.066;2023-02-14T04:05:15;26.58;;;14.65;;
56075;SDS011;41951;49.022;12.066;2023-02-14T04:07:46;23.63;;;12.10;;
56075;SDS011;41951;49.022;12.066;2023-02-14T04:10:15;30.20;;;16.30;;
56075;SDS011;41951;49.022;12.066;2023-02-14T04:12:41;23.67;;;11.98;;
56075;SDS011;41951;49.022;12.066;2023-02-14T04:15:07;24.23;;;13.75;;
56075;SDS011;41951;49.022;12.066;2023-02-14T04:17:33;25.27;;;13.00;;
56075;SDS011;41951;49.022;12.066;2023-02-14T04:20:17;26.95;;;13.50;;
56075;SDS011;41951;49.022;12.066;2023-02-14T04:22:43;25.20;;;14.27;;
56075;SDS011;41951;49.022;12.066;2023-02-14T04:25:10;27.58;;;13.82;;
56075;SDS011;41951;49.022;12.066;2023-02-14T04:27:36;24.50;;;13.75;;
56075;SDS011;41951;49.022;12.066;2023-02-14T04:30:02;28.10;;;15.13;;
56075;SDS011;41951;49.022;12.066;2023-02-14T04:32:27;27.38;;;15.13;;
56075;SDS011;41951;49.022;12.066;2023-02-14T04:34:53;30.92;;;16.85;;
56075;SDS011;41951;49.022;12.066;2023-02-14T04:37:18;25.92;;;14.95;;
56075;SDS011;41951;49.022;12.066;2023-02-14T04:39:44;26.65;;;14.30;;
56075;SDS011;41951;49.022;12.066;2023-02-14T04:42:10;26.95;;;15.20;;
56075;SDS011;41951;49.022;12.066;2023-02-14T04:44:35;27.95;;;15.10;;
56075;SDS011;41951;49.022;12.066;2023-02-14T04:47:02;31.30;;;17.13;;
56075;SDS011;41951;49.022;12.066;2023-02-14T04:49:28;29.02;;;16.23;;
56075;SDS011;41951;49.022;12.066;2023-02-14T04:51:54;26.58;;;16.30;;
56075;SDS011;41951;49.022;12.066;2023-02-14T04:54:20;27.10;;;15.25;;
56075;SDS011;41951;49.022;12.066;2023-02-14T04:56:46;24.23;;;14.65;;
56075;SDS011;41951;49.022;12.066;2023-02-14T04:59:11;26.35;;;14.85;;
56075;SDS011;41951;49.022;12.066;2023-02-14T05:01:38;26.23;;;15.65;;
56075;SDS011;41951;49.022;12.066;2023-02-14T05:04:04;30.15;;;15.63;;
56075;SDS011;41951;49.022;12.066;2023-02-14T05:06:30;26.25;;;14.73;;
56075;SDS011;41951;49.022;12.066;2023-02-14T05:08:56;32.15;;;16.35;;
56075;SDS011;41951;49.022;12.066;2023-02-14T05:11:22;30.00;;;15.30;;
56075;SDS011;41951;49.022;12.066;2023-02-14T05:13:48;29.70;;;15.90;;
56075;SDS011;41951;49.022;12.066;2023-02-14T05:16:14;30.88;;;16.50;;
56075;SDS011;41951;49.022;12.066;2023-02-14T05:18:39;27.65;;;15.07;;
56075;SDS011;41951;49.022;12.066;2023-02-14T05:21:05;28.80;;;16.33;;
56075;SDS011;41951;49.022;12.066;2023-02-14T05:23:31;27.85;;;15.43;;
56075;SDS011;41951;49.022;12.066;2023-02-14T05:25:56;30.58;;;17.10;;
56075;SDS011;41951;49.022;12.066;2023-02-14T05:28:22;32.53;;;17.70;;
56075;SDS011;41951;49.022;12.066;2023-02-14T05:30:49;28.17;;;15.10;;
56075;SDS011;41951;49.022;12.066;2023-02-14T05:33:15;31.42;;;16.52;;
56075;SDS011;41951;49.022;12.066;2023-02-14T05:35:40;30.95;;;16.52;;
56075;SDS011;41951;49.022;12.066;2023-02-14T05:38:06;28.65;;;15.48;;
56075;SDS011;41951;49.022;12.066;2023-02-14T05:40:32;33.42;;;16.08;;
56075;SDS011;41951;49.022;12.066;2023-02-14T05:42:58;33.05;;;16.17;;
56075;SDS011;41951;49.022;12.066;2023-02-14T05:45:23;35.50;;;18.38;;
56075;SDS011;41951;49.022;12.066;2023-02-14T05:47:49;30.65;;;16.27;;
56075;SDS011;41951;49.022;12.066;2023-02-14T05:50:15;32.10;;;17.45;;
56075;SDS011;41951;49.022;12.066;2023-02-14T05:52:41;29.17;;;16.42;;
56075;SDS011;41951;49.022;12.066;2023-02-14T05:55:07;33.15;;;17.17;;
56075;SDS011;41951;49.022;12.066;2023-02-14T05:57:33;33.90;;;16.77;;
56075;SDS011;41951;49.022;12.066;2023-02-14T05:59:59;30.83;;;17.33;;
56075;SDS011;41951;49.022;12.066;2023-02-14T06:02:25;31.95;;;18.33;;
56075;SDS011;41951;49.022;12.066;2023-02-14T06:04:51;31.77;;;18.27;;
56075;SDS011;41951;49.022;12.066;2023-02-14T06:07:17;33.38;;;16.90;;
56075;SDS011;41951;49.022;12.066;2023-02-14T06:09:42;30.80;;;16.92;;
56075;SDS011;41951;49.022;12.066;2023-02-14T06:12:08;31.67;;;16.92;;
56075;SDS011;41951;49.022;12.066;2023-02-14T06:14:34;32.28;;;16.88;;
56075;SDS011;41951;49.022;12.066;2023-02-14T06:17:00;31.10;;;16.38;;
56075;SDS011;41951;49.022;12.066;2023-02-14T06:19:25;34.47;;;18.25;;
56075;SDS011;41951;49.022;12.066;2023-02-14T06:21:51;30.40;;;16.92;;
56075;SDS011;41951;49.022;12.066;2023-02-14T06:24:16;37.38;;;18.30;;
56075;SDS011;41951;49.022;12.066;2023-02-14T06:26:42;33.40;;;17.52;;
56075;SDS011;41951;49.022;12.066;2023-02-14T06:29:07;29.80;;;16.92;;
56075;SDS011;41951;49.022;12.066;2023-02-14T06:31:33;31.98;;;17.27;;
56075;SDS011;41951;49.022;12.066;2023-02-14T06:33:58;34.38;;;17.13;;
56075;SDS011;41951;49.022;12.066;2023-02-14T06:36:24;34.05;;;17.98;;
56075;SDS011;41951;49.022;12.066;2023-02-14T06:38:51;38.42;;;19.25;;
56075;SDS011;41951;49.022;12.066;2023-02-14T06:41:16;32.53;;;16.92;;
56075;SDS011;41951;49.022;12.066;2023-02-14T06:43:43;33.63;;;17.45;;
56075;SDS011;41951;49.022;12.066;2023-02-14T06:46:10;27.80;;;15.85;;
56075;SDS011;41951;49.022;12.066;2023-02-14T06:48:35;32.13;;;16.38;;
56075;SDS011;41951;49.022;12.066;2023-02-14T06:51:01;31.33;;;16.52;;
56075;SDS011;41951;49.022;12.066;2023-02-14T06:53:27;30.88;;;16.73;;
56075;SDS011;41951;49.022;12.066;2023-02-14T06:55:53;29.98;;;15.93;;
56075;SDS011;41951;49.022;12.066;2023-02-14T06:58:18;30.88;;;16.42;;
56075;SDS011;41951;49.022;12.066;2023-02-14T07:00:45;31.98;;;16.05;;
56075;SDS011;41951;49.022;12.066;2023-02-14T07:03:10;30.35;;;17.15;;
56075;SDS011;41951;49.022;12.066;2023-02-14T07:05:36;32.05;;;16.70;;
56075;SDS011;41951;49.022;12.066;2023-02-14T07:08:02;29.08;;;17.52;;
56075;SDS011;41951;49.022;12.066;2023-02-14T07:10:27;33.97;;;17.02;;
56075;SDS011;41951;49.022;12.066;2023-02-14T07:12:53;32.15;;;16.52;;
56075;SDS011;41951;49.022;12.066;2023-02-14T07:15:19;34.35;;;16.63;;
56075;SDS011;41951;49.022;12.066;2023-02-14T07:17:44;34.10;;;17.60;;
56075;SDS011;41951;49.022;12.066;2023-02-14T07:20:10;32.20;;;17.13;;
56075;SDS011;41951;49.022;12.066;2023-02-14T07:22:37;33.28;;;17.33;;
56075;SDS011;41951;49.022;12.066;2023-02-14T07:25:04;35.08;;;15.80;;
56075;SDS011;41951;49.022;12.066;2023-02-14T07:27:31;30.85;;;17.27;;
56075;SDS011;41951;49.022;12.066;2023-02-14T07:29:56;32.58;;;16.73;;
56075;SDS011;41951;49.022;12.066;2023-02-14T07:32:22;33.90;;;16.63;;
56075;SDS011;41951;49.022;12.066;2023-02-14T07:34:48;36.17;;;18.17;;
56075;SDS011;41951;49.022;12.066;2023-02-14T07:37:14;37.25;;;16.70;;
56075;SDS011;41951;49.022;12.066;2023-02-14T07:39:41;36.60;;;18.50;;
56075;SDS011;41951;49.022;12.066;2023-02-14T07:42:08;35.45;;;16.63;;
56075;SDS011;41951;49.022;12.066;2023-02-14T07:44:34;35.92;;;17.33;;
56075;SDS011;41951;49.022;12.066;2023-02-14T07:47:02;34.33;;;18.50;;
56075;SDS011;41951;49.022;12.066;2023-02-14T07:49:29;30.17;;;15.82;;
56075;SDS011;41951;49.022;12.066;2023-02-14T07:51:54;35.15;;;16.50;;
56075;SDS011;41951;49.022;12.066;2023-02-14T07:54:20;38.22;;;18.05;;
56075;SDS011;41951;49.022;12.066;2023-02-14T07:56:45;39.03;;;17.75;;
56075;SDS011;41951;49.022;12.066;2023-02-14T07:59:11;35.22;;;16.55;;
56075;SDS011;41951;49.022;12.066;2023-02-14T08:01:36;33.60;;;17.20;;
56075;SDS011;41951;49.022;12.066;2023-02-14T08:04:02;32.22;;;16.05;;
56075;SDS011;41951;49.022;12.066;2023-02-14T08:06:28;33.25;;;16.73;;
56075;SDS011;41951;49.022;12.066;2023-02-14T08:08:53;34.20;;;15.85;;
56075;SDS011;41951;49.022;12.066;2023-02-14T08:11:19;32.28;;;14.68;;
56075;SDS011;41951;49.022;12.066;2023-02-14T08:14:03;32.03;;;13.70;;
56075;SDS011;41951;49.022;12.066;2023-02-14T08:16:29;27.13;;;13.02;;
56075;SDS011;41951;49.022;12.066;2023-02-14T08:18:58;26.38;;;13.13;;
56075;SDS011;41951;49.022;12.066;2023-02-14T08:21:24;25.77;;;11.80;;
56075;SDS011;41951;49.022;12.066;2023-02-14T08:23:49;26.65;;;12.60;;
56075;SDS011;41951;49.022;12.066;2023-02-14T08:26:15;28.17;;;13.52;;
56075;SDS011;41951;49.022;12.066;2023-02-14T08:28:41;25.73;;;12.65;;
56075;SDS011;41951;49.022;12.066;2023-02-14T08:31:07;29.58;;;13.05;;
56075;SDS011;41951;49.022;12.066;2023-02-14T08:33:33;30.48;;;14.95;;
56075;SDS011;41951;49.022;12.066;2023-02-14T08:35:59;30.05;;;12.68;;
56075;SDS011;41951;49.022;12.066;2023-02-14T08:38:25;26.38;;;12.30;;
56075;SDS011;41951;49.022;12.066;2023-02-14T08:40:50;26.58;;;11.43;;
56075;SDS011;41951;49.022;12.066;2023-02-14T08:43:16;27.08;;;12.88;;
56075;SDS011;41951;49.022;12.066;2023-02-14T08:45:42;28.52;;;13.07;;
56075;SDS011;41951;49.022;12.066;2023-02-14T08:48:08;27.77;;;12.60;;
56075;SDS011;41951;49.022;12.066;2023-02-14T08:50:36;25.98;;;11.93;;
56075;SDS011;41951;49.022;12.066;2023-02-14T08:53:07;24.25;;;11.40;;
56075;SDS011;41951;49.022;12.066;2023-02-14T08:55:34;24.98;;;10.95;;
56075;SDS011;41951;49.022;12.066;2023-02-14T08:58:00;26.63;;;12.55;;
56075;SDS011;41951;49.022;12.066;2023-02-14T09:00:25;22.83;;;10.38;;
56075;SDS011;41951;49.022;12.066;2023-02-14T09:02:51;23.50;;;10.65;;
56075;SDS011;41951;49.022;12.066;2023-02-14T09:05:18;22.80;;;10.65;;
56075;SDS011;41951;49.022;12.066;2023-02-14T09:07:44;26.58;;;11.02;;
56075;SDS011;41951;49.022;12.066;2023-02-14T09:10:10;26.48;;;11.50;;
56075;SDS011;41951;49.022;12.066;2023-02-14T09:12:39;24.10;;;10.20;;
56075;SDS011;41951;49.022;12.066;2023-02-14T09:15:06;20.92;;;10.52;;
56075;SDS011;41951;49.022;12.066;2023-02-14T09:17:33;24.42;;;10.70;;
56075;SDS011;41951;49.022;12.066;2023-02-14T09:19:59;25.42;;;10.90;;
56075;SDS011;41951;49.022;12.066;2023-02-14T09:22:24;21.95;;;10.07;;
56075;SDS011;41951;49.022;12.066;2023-02-14T09:24:50;21.30;;;9.90;;
56075;SDS011;41951;49.022;12.066;2023-02-14T09:27:16;19.63;;;8.77;;
56075;SDS011;41951;49.022;12.066;2023-02-14T09:29:41;21.60;;;10.75;;
56075;SDS011;41951;49.022;12.066;2023-02-14T09:32:07;24.40;;;10.80;;
56075;SDS011;41951;49.022;12.066;2023-02-14T09:34:33;21.40;;;10.15;;
56075;SDS011;41951;49.022;12.066;2023-02-14T09:37:18;20.42;;;9.30;;
56075;SDS011;41951;49.022;12.066;2023-02-14T09:40:02;21.38;;;10.07;;
56075;SDS011;41951;49.022;12.066;2023-02-14T09:45:41;26.60;;;10.30;;
56075;SDS011;41951;49.022;12.066;2023-02-14T09:51:07;25.35;;;10.63;;
56075;SDS011;41951;49.022;12.066;2023-02-14T09:53:39;22.92;;;9.52;;
56075;SDS011;41951;49.022;12.066;2023-02-14T09:56:18;21.13;;;10.75;;
56075;SDS011;41951;49.022;12.066;2023-02-14T10:02:00;24.85;;;10.75;;
56075;SDS011;41951;49.022;12.066;2023-02-14T10:04:40;17.38;;;8.68;;
56075;SDS011;41951;49.022;12.066;2023-02-14T10:12:49;19.52;;;8.70;;
56075;SDS011;41951;49.022;12.066;2023-02-14T10:15:26;24.67;;;10.40;;
56075;SDS011;41951;49.022;12.066;2023-02-14T10:18:00;21.48;;;9.18;;
56075;SDS011;41951;49.022;12.066;2023-02-14T10:20:43;22.83;;;9.95;;
56075;SDS011;41951;49.022;12.066;2023-02-14T10:23:29;21.70;;;9.98;;
56075;SDS011;41951;49.022;12.066;2023-02-14T10:26:10;24.70;;;10.48;;
56075;SDS011;41951;49.022;12.066;2023-02-14T10:28:43;20.17;;;8.25;;
56075;SDS011;41951;49.022;12.066;2023-02-14T10:33:46;22.65;;;10.18;;
56075;SDS011;41951;49.022;12.066;2023-02-14T10:38:45;19.67;;;8.95;;
56075;SDS011;41951;49.022;12.066;2023-02-14T10:41:44;23.98;;;10.07;;
56075;SDS011;41951;49.022;12.066;2023-02-14T10:54:59;21.15;;;10.05;;
56075;SDS011;41951;49.022;12.066;2023-02-14T10:57:53;25.40;;;10.90;;
56075;SDS011;41951;49.022;12.066;2023-02-14T11:03:10;23.85;;;10.77;;
56075;SDS011;41951;49.022;12.066;2023-02-14T11:05:37;26.10;;;10.65;;
56075;SDS011;41951;49.022;12.066;2023-02-14T11:08:17;20.35;;;9.80;;
56075;SDS011;41951;49.022;12.066;2023-02-14T11:10:53;24.83;;;10.00;;
56075;SDS011;41951;49.022;12.066;2023-02-14T11:13:56;21.07;;;9.90;;
56075;SDS011;41951;49.022;12.066;2023-02-14T11:16:27;25.63;;;10.95;;
56075;SDS011;41951;49.022;12.066;2023-02-14T11:21:39;25.88;;;9.50;;
56075;SDS011;41951;49.022;12.066;2023-02-14T11:26:53;22.35;;;10.20;;
56075;SDS011;41951;49.022;12.066;2023-02-14T11:29:56;26.83;;;11.23;;
56075;SDS011;41951;49.022;12.066;2023-02-14T11:32:20;25.60;;;10.93;;
56075;SDS011;41951;49.022;12.066;2023-02-14T11:34:52;30.48;;;13.30;;
56075;SDS011;41951;49.022;12.066;2023-02-14T11:37:30;24.35;;;12.02;;
56075;SDS011;41951;49.022;12.066;2023-02-14T11:40:03;25.25;;;10.75;;
56075;SDS011;41951;49.022;12.066;2023-02-14T11:42:41;24.63;;;11.20;;
56075;SDS011;41951;49.022;12.066;2023-02-14T11:45:42;24.35;;;11.00;;
56075;SDS011;41951;49.022;12.066;2023-02-14T11:50:52;24.35;;;11.13;;
56075;SDS011;41951;49.022;12.066;2023-02-14T11:53:25;26.58;;;11.35;;
56075;SDS011;41951;49.022;12.066;2023-02-14T11:55:54;25.70;;;11.18;;
56075;SDS011;41951;49.022;12.066;2023-02-14T11:58:32;25.33;;;10.88;;
56075;SDS011;41951;49.022;12.066;2023-02-14T12:01:02;23.55;;;10.65;;
56075;SDS011;41951;49.022;12.066;2023-02-14T12:03:32;24.27;;;11.10;;
56075;SDS011;41951;49.022;12.066;2023-02-14T12:06:10;20.67;;;9.65;;
56075;SDS011;41951;49.022;12.066;2023-02-14T12:08:46;24.73;;;11.07;;
56075;SDS011;41951;49.022;12.066;2023-02-14T12:11:19;23.15;;;10.82;;
56075;SDS011;41951;49.022;12.066;2023-02-14T12:13:53;24.60;;;10.15;;
56075;SDS011;41951;49.022;12.066;2023-02-14T12:16:23;19.90;;;10.35;;
56075;SDS011;41951;49.022;12.066;2023-02-14T12:18:58;25.00;;;10.30;;
56075;SDS011;41951;49.022;12.066;2023-02-14T12:27:03;25.05;;;10.02;;
56075;SDS011;41951;49.022;12.066;2023-02-14T12:32:35;23.23;;;10.95;;
56075;SDS011;41951;49.022;12.066;2023-02-14T12:35:17;24.05;;;10.32;;
56075;SDS011;41951;49.022;12.066;2023-02-14T12:38:01;23.65;;;10.98;;
56075;SDS011;41951;49.022;12.066;2023-02-14T12:43:52;26.17;;;11.10;;
56075;SDS011;41951;49.022;12.066;2023-02-14T12:49:10;22.88;;;10.35;;
56075;SDS011;41951;49.022;12.066;2023-02-14T13:12:01;25.17;;;12.07;;
56075;SDS011;41951;49.022;12.066;2023-02-14T13:23:11;21.40;;;11.30;;
56075;SDS011;41951;49.022;12.066;2023-02-14T13:28:37;25.35;;;11.20;;
56075;SDS011;41951;49.022;12.066;2023-02-14T13:31:09;26.58;;;13.55;;
56075;SDS011;41951;49.022;12.066;2023-02-14T13:33:40;24.80;;;11.70;;
56075;SDS011;41951;49.022;12.066;2023-02-14T13:36:10;26.85;;;11.40;;
56075;SDS011;41951;49.022;12.066;2023-02-14T13:38:42;24.38;;;11.10;;
56075;SDS011;41951;49.022;12.066;2023-02-14T13:41:10;26.00;;;10.77;;
56075;SDS011;41951;49.022;12.066;2023-02-14T13:51:50;28.65;;;11.27;;
56075;SDS011;41951;49.022;12.066;2023-02-14T13:54:21;29.25;;;11.50;;
56075;SDS011;41951;49.022;12.066;2023-02-14T13:56:52;22.85;;;10.85;;
56075;SDS011;41951;49.022;12.066;2023-02-14T13:59:23;23.23;;;10.70;;
56075;SDS011;41951;49.022;12.066;2023-02-14T14:01:51;27.70;;;12.60;;
56075;SDS011;41951;49.022;12.066;2023-02-14T14:17:29;26.23;;;12.05;;
56075;SDS011;41951;49.022;12.066;2023-02-14T14:19:56;26.77;;;11.82;;
56075;SDS011;41951;49.022;12.066;2023-02-14T14:22:22;27.98;;;12.00;;
56075;SDS011;41951;49.022;12.066;2023-02-14T14:24:50;25.65;;;12.95;;
56075;SDS011;41951;49.022;12.066;2023-02-14T14:27:22;26.15;;;11.77;;
56075;SDS011;41951;49.022;12.066;2023-02-14T14:29:58;27.30;;;12.50;;
56075;SDS011;41951;49.022;12.066;2023-02-14T14:32:31;27.98;;;11.77;;
56075;SDS011;41951;49.022;12.066;2023-02-14T14:35:00;26.25;;;10.93;;
56075;SDS011;41951;49.022;12.066;2023-02-14T14:37:33;26.10;;;11.63;;
56075;SDS011;41951;49.022;12.066;2023-02-14T14:40:04;26.77;;;12.10;;
56075;SDS011;41951;49.022;12.066;2023-02-14T14:42:36;29.13;;;11.70;;
56075;SDS011;41951;49.022;12.066;2023-02-14T14:45:08;26.52;;;11.70;;
56075;SDS011;41951;49.022;12.066;2023-02-14T14:47:45;28.17;;;11.38;;
56075;SDS011;41951;49.022;12.066;2023-02-14T14:50:22;28.48;;;12.15;;
56075;SDS011;41951;49.022;12.066;2023-02-14T14:52:51;28.52;;;11.90;;
56075;SDS011;41951;49.022;12.066;2023-02-14T14:55:29;26.08;;;11.77;;
56075;SDS011;41951;49.022;12.066;2023-02-14T14:58:02;24.75;;;11.23;;
56075;SDS011;41951;49.022;12.066;2023-02-14T15:05:27;26.83;;;11.60;;
56075;SDS011;41951;49.022;12.066;2023-02-14T15:07:56;24.92;;;11.73;;
56075;SDS011;41951;49.022;12.066;2023-02-14T15:10:27;27.27;;;12.55;;
56075;SDS011;41951;49.022;12.066;2023-02-14T15:12:55;24.95;;;11.98;;
56075;SDS011;41951;49.022;12.066;2023-02-14T15:15:41;25.65;;;11.88;;
56075;SDS011;41951;49.022;12.066;2023-02-14T15:18:13;27.58;;;11.68;;
56075;SDS011;41951;49.022;12.066;2023-02-14T15:20:39;37.30;;;16.70;;
56075;SDS011;41951;49.022;12.066;2023-02-14T15:23:06;28.73;;;13.40;;
56075;SDS011;41951;49.022;12.066;2023-02-14T15:25:33;25.05;;;13.13;;
56075;SDS011;41951;49.022;12.066;2023-02-14T15:28:00;26.70;;;11.82;;
56075;SDS011;41951;49.022;12.066;2023-02-14T15:30:27;30.23;;;12.93;;
56075;SDS011;41951;49.022;12.066;2023-02-14T15:32:58;23.55;;;12.10;;
56075;SDS011;41951;49.022;12.066;2023-02-14T15:35:28;27.33;;;12.30;;
56075;SDS011;41951;49.022;12.066;2023-02-14T15:37:56;30.70;;;13.48;;
56075;SDS011;41951;49.022;12.066;2023-02-14T15:40:24;31.45;;;14.70;;
56075;SDS011;41951;49.022;12.066;2023-02-14T15:42:52;29.92;;;13.05;;
56075;SDS011;41951;49.022;12.066;2023-02-14T15:47:55;29.02;;;12.57;;
56075;SDS011;41951;49.022;12.066;2023-02-14T15:50:28;30.58;;;12.40;;
56075;SDS011;41951;49.022;12.066;2023-02-14T15:53:01;28.05;;;13.43;;
56075;SDS011;41951;49.022;12.066;2023-02-14T15:55:33;27.83;;;12.15;;
56075;SDS011;41951;49.022;12.066;2023-02-14T15:58:10;36.05;;;13.50;;
56075;SDS011;41951;49.022;12.066;2023-02-14T16:00:50;34.25;;;12.80;;
56075;SDS011;41951;49.022;12.066;2023-02-14T16:03:18;30.58;;;13.82;;
56075;SDS011;41951;49.022;12.066;2023-02-14T16:05:49;28.45;;;13.25;;
56075;SDS011;41951;49.022;12.066;2023-02-14T16:08:23;32.90;;;14.15;;
56075;SDS011;41951;49.022;12.066;2023-02-14T16:14:18;30.27;;;12.60;;
56075;SDS011;41951;49.022;12.066;2023-02-14T16:16:56;27.00;;;12.98;;
56075;SDS011;41951;49.022;12.066;2023-02-14T16:19:30;29.05;;;13.65;;
56075;SDS011;41951;49.022;12.066;2023-02-14T16:22:07;27.02;;;12.52;;
56075;SDS011;41951;49.022;12.066;2023-02-14T16:24:34;28.70;;;12.50;;
56075;SDS011;41951;49.022;12.066;2023-02-14T16:27:01;29.25;;;13.60;;
56075;SDS011;41951;49.022;12.066;2023-02-14T16:29:31;30.90;;;12.93;;
56075;SDS011;41951;49.022;12.066;2023-02-14T16:32:07;27.80;;;12.90;;
56075;SDS011;41951;49.022;12.066;2023-02-14T16:34:37;31.77;;;11.90;;
56075;SDS011;41951;49.022;12.066;2023-02-14T16:37:05;37.40;;;13.43;;
56075;SDS011;41951;49.022;12.066;2023-02-14T16:39:42;32.50;;;14.20;;
56075;SDS011;41951;49.022;12.066;2023-02-14T16:42:12;27.23;;;12.45;;
56075;SDS011;41951;49.022;12.066;2023-02-14T16:44:41;28.80;;;13.05;;
56075;SDS011;41951;49.022;12.066;2023-02-14T16:47:10;33.20;;;15.18;;
56075;SDS011;41951;49.022;12.066;2023-02-14T16:49:37;52.72;;;24.17;;
56075;SDS011;41951;49.022;12.066;2023-02-14T16:52:03;29.58;;;15.75;;
56075;SDS011;41951;49.022;12.066;2023-02-14T16:54:29;31.38;;;12.90;;
56075;SDS011;41951;49.022;12.066;2023-02-14T16:59:23;28.52;;;13.65;;
56075;SDS011;41951;49.022;12.066;2023-02-14T17:01:49;26.98;;;13.63;;
56075;SDS011;41951;49.022;12.066;2023-02-14T17:04:15;31.25;;;12.85;;